< < Back
Terminal Aerodrome Forecast


Current Version              Previous Versions:   1  2  3  4  5  6  7  8  9  

Terminal Aerodrome Forecast

895
FTUS42 KFFC 060138 AAA
TAFFTY
TAF AMD
KFTY 060138Z 0602/0624 33012G15KT P6SM SCT080
     FM060400 33008KT P6SM SKC
     FM061300 33013G23KT P6SM SKC
     FM061500 34017G27KT P6SM FEW050=

Latest METAR

549
SAUS70 KWBC 061656
MTRFTY
METAR KFTY 061653Z 35017G23KT 10SM FEW060 18/05 A2994 RMK AO2 PK WND
33026/1558 SLP135 T01830050


USA.gov is the U.S. government's official web portal to all federal, state and local government web resources and services.